sensor_id;sensor_type;location;lat;lon;timestamp;temperature;humidity
43151;DHT22;28755;51.478;5.702;2023-08-17T00:01:57;20.10;99.90
43151;DHT22;28755;51.478;5.702;2023-08-17T00:04:22;20.10;99.90
43151;DHT22;28755;51.478;5.702;2023-08-17T00:06:48;20.00;99.90
43151;DHT22;28755;51.478;5.702;2023-08-17T00:09:13;20.00;99.90
43151;DHT22;28755;51.478;5.702;2023-08-17T00:11:39;19.90;99.90
43151;DHT22;28755;51.478;5.702;2023-08-17T00:14:05;19.90;99.90
43151;DHT22;28755;51.478;5.702;2023-08-17T00:16:31;19.90;99.90
43151;DHT22;28755;51.478;5.702;2023-08-17T00:18:56;19.90;99.90
43151;DHT22;28755;51.478;5.702;2023-08-17T00:21:22;19.80;99.90
43151;DHT22;28755;51.478;5.702;2023-08-17T00:23:48;19.80;99.90
43151;DHT22;28755;51.478;5.702;2023-08-17T00:26:14;19.80;99.90
43151;DHT22;28755;51.478;5.702;2023-08-17T00:28:40;19.90;99.90
43151;DHT22;28755;51.478;5.702;2023-08-17T00:31:05;19.80;99.90
43151;DHT22;28755;51.478;5.702;2023-08-17T00:33:31;19.80;99.90
43151;DHT22;28755;51.478;5.702;2023-08-17T00:35:56;19.80;99.90
43151;DHT22;28755;51.478;5.702;2023-08-17T00:38:22;19.80;99.90
43151;DHT22;28755;51.478;5.702;2023-08-17T00:40:48;19.80;99.90
43151;DHT22;28755;51.478;5.702;2023-08-17T00:43:13;19.70;99.90
43151;DHT22;28755;51.478;5.702;2023-08-17T00:45:40;19.70;99.90
43151;DHT22;28755;51.478;5.702;2023-08-17T00:48:07;19.70;99.90
43151;DHT22;28755;51.478;5.702;2023-08-17T00:50:34;19.70;99.90
43151;DHT22;28755;51.478;5.702;2023-08-17T00:53:01;19.60;99.90
43151;DHT22;28755;51.478;5.702;2023-08-17T00:55:27;19.60;99.90
43151;DHT22;28755;51.478;5.702;2023-08-17T00:57:53;19.60;99.90
43151;DHT22;28755;51.478;5.702;2023-08-17T01:00:21;19.70;99.90
43151;DHT22;28755;51.478;5.702;2023-08-17T01:02:49;19.60;99.90
43151;DHT22;28755;51.478;5.702;2023-08-17T01:05:14;19.60;99.90
43151;DHT22;28755;51.478;5.702;2023-08-17T01:07:40;19.50;99.90
43151;DHT22;28755;51.478;5.702;2023-08-17T01:10:06;19.50;99.90
43151;DHT22;28755;51.478;5.702;2023-08-17T01:12:42;19.50;99.90
43151;DHT22;28755;51.478;5.702;2023-08-17T01:15:19;19.40;99.90
43151;DHT22;28755;51.478;5.702;2023-08-17T01:17:54;19.30;99.90
43151;DHT22;28755;51.478;5.702;2023-08-17T01:20:23;19.30;99.90
43151;DHT22;28755;51.478;5.702;2023-08-17T01:22:49;19.30;99.90
43151;DHT22;28755;51.478;5.702;2023-08-17T01:25:15;19.30;99.90
43151;DHT22;28755;51.478;5.702;2023-08-17T01:27:44;19.20;99.90
43151;DHT22;28755;51.478;5.702;2023-08-17T01:30:13;19.30;99.90
43151;DHT22;28755;51.478;5.702;2023-08-17T01:33:01;19.30;99.90
43151;DHT22;28755;51.478;5.702;2023-08-17T01:35:37;19.20;99.90
43151;DHT22;28755;51.478;5.702;2023-08-17T01:38:07;19.20;99.90
43151;DHT22;28755;51.478;5.702;2023-08-17T01:40:33;19.20;99.90
43151;DHT22;28755;51.478;5.702;2023-08-17T01:43:00;19.10;99.90
43151;DHT22;28755;51.478;5.702;2023-08-17T01:45:27;19.10;99.90
43151;DHT22;28755;51.478;5.702;2023-08-17T01:47:52;19.10;99.90
43151;DHT22;28755;51.478;5.702;2023-08-17T01:50:18;19.00;99.90
43151;DHT22;28755;51.478;5.702;2023-08-17T01:52:43;19.10;99.90
43151;DHT22;28755;51.478;5.702;2023-08-17T01:55:09;19.00;99.90
43151;DHT22;28755;51.478;5.702;2023-08-17T01:57:35;19.10;99.90
43151;DHT22;28755;51.478;5.702;2023-08-17T02:00:07;19.00;99.90
43151;DHT22;28755;51.478;5.702;2023-08-17T02:02:36;19.00;99.90
43151;DHT22;28755;51.478;5.702;2023-08-17T02:05:02;19.00;99.90
43151;DHT22;28755;51.478;5.702;2023-08-17T02:07:28;18.90;99.90
43151;DHT22;28755;51.478;5.702;2023-08-17T02:09:53;18.90;99.90
43151;DHT22;28755;51.478;5.702;2023-08-17T02:12:19;18.90;99.90
43151;DHT22;28755;51.478;5.702;2023-08-17T02:14:45;18.90;99.90
43151;DHT22;28755;51.478;5.702;2023-08-17T02:17:10;18.90;99.90
43151;DHT22;28755;51.478;5.702;2023-08-17T02:19:36;19.00;99.90
43151;DHT22;28755;51.478;5.702;2023-08-17T02:22:02;18.90;99.90
43151;DHT22;28755;51.478;5.702;2023-08-17T02:24:28;18.90;99.90
43151;DHT22;28755;51.478;5.702;2023-08-17T02:26:53;18.90;99.90
43151;DHT22;28755;51.478;5.702;2023-08-17T02:29:19;18.90;99.90
43151;DHT22;28755;51.478;5.702;2023-08-17T02:31:44;18.90;99.90
43151;DHT22;28755;51.478;5.702;2023-08-17T02:34:10;18.90;99.90
43151;DHT22;28755;51.478;5.702;2023-08-17T02:36:35;18.90;99.90
43151;DHT22;28755;51.478;5.702;2023-08-17T02:39:01;18.90;99.90
43151;DHT22;28755;51.478;5.702;2023-08-17T02:41:28;18.90;99.90
43151;DHT22;28755;51.478;5.702;2023-08-17T02:43:55;18.90;99.90
43151;DHT22;28755;51.478;5.702;2023-08-17T02:46:21;18.90;99.90
43151;DHT22;28755;51.478;5.702;2023-08-17T02:48:46;18.90;99.90
43151;DHT22;28755;51.478;5.702;2023-08-17T02:51:13;18.90;99.90
43151;DHT22;28755;51.478;5.702;2023-08-17T02:53:38;18.90;99.90
43151;DHT22;28755;51.478;5.702;2023-08-17T02:56:04;18.90;99.90
43151;DHT22;28755;51.478;5.702;2023-08-17T02:58:30;18.80;99.90
43151;DHT22;28755;51.478;5.702;2023-08-17T03:00:55;18.80;99.90
43151;DHT22;28755;51.478;5.702;2023-08-17T03:03:21;18.70;99.90
43151;DHT22;28755;51.478;5.702;2023-08-17T03:05:46;18.70;99.90
43151;DHT22;28755;51.478;5.702;2023-08-17T03:08:12;18.70;99.90
43151;DHT22;28755;51.478;5.702;2023-08-17T03:10:38;18.70;99.90
43151;DHT22;28755;51.478;5.702;2023-08-17T03:13:03;18.70;99.90
43151;DHT22;28755;51.478;5.702;2023-08-17T03:15:29;18.80;99.90
43151;DHT22;28755;51.478;5.702;2023-08-17T03:17:55;18.80;99.90
43151;DHT22;28755;51.478;5.702;2023-08-17T03:20:20;18.80;99.90
43151;DHT22;28755;51.478;5.702;2023-08-17T03:22:46;18.80;99.90
43151;DHT22;28755;51.478;5.702;2023-08-17T03:25:11;18.80;99.90
43151;DHT22;28755;51.478;5.702;2023-08-17T03:27:37;18.70;99.90
43151;DHT22;28755;51.478;5.702;2023-08-17T03:30:04;18.70;99.90
43151;DHT22;28755;51.478;5.702;2023-08-17T03:32:30;18.70;99.90
43151;DHT22;28755;51.478;5.702;2023-08-17T03:34:55;18.80;99.90
43151;DHT22;28755;51.478;5.702;2023-08-17T03:37:21;18.70;99.90
43151;DHT22;28755;51.478;5.702;2023-08-17T03:39:46;18.70;99.90
43151;DHT22;28755;51.478;5.702;2023-08-17T03:42:12;18.70;99.90
43151;DHT22;28755;51.478;5.702;2023-08-17T03:44:37;18.70;99.90
43151;DHT22;28755;51.478;5.702;2023-08-17T03:47:03;18.70;99.90
43151;DHT22;28755;51.478;5.702;2023-08-17T03:49:29;18.70;99.90
43151;DHT22;28755;51.478;5.702;2023-08-17T03:51:54;18.70;99.90
43151;DHT22;28755;51.478;5.702;2023-08-17T03:54:20;18.60;99.90
43151;DHT22;28755;51.478;5.702;2023-08-17T03:56:45;18.60;99.90
43151;DHT22;28755;51.478;5.702;2023-08-17T03:59:11;18.50;99.90
43151;DHT22;28755;51.478;5.702;2023-08-17T04:01:36;18.40;99.90
43151;DHT22;28755;51.478;5.702;2023-08-17T04:04:02;18.40;99.90
43151;DHT22;28755;51.478;5.702;2023-08-17T04:06:28;18.40;99.90
43151;DHT22;28755;51.478;5.702;2023-08-17T04:08:53;18.50;99.90
43151;DHT22;28755;51.478;5.702;2023-08-17T04:11:19;18.40;99.90
43151;DHT22;28755;51.478;5.702;2023-08-17T04:13:44;18.40;99.90
43151;DHT22;28755;51.478;5.702;2023-08-17T04:16:10;18.30;99.90
43151;DHT22;28755;51.478;5.702;2023-08-17T04:18:35;18.40;99.90
43151;DHT22;28755;51.478;5.702;2023-08-17T04:21:01;18.30;99.90
43151;DHT22;28755;51.478;5.702;2023-08-17T04:23:27;18.30;99.90
43151;DHT22;28755;51.478;5.702;2023-08-17T04:25:53;18.20;99.90
43151;DHT22;28755;51.478;5.702;2023-08-17T04:28:19;18.20;99.90
43151;DHT22;28755;51.478;5.702;2023-08-17T04:30:45;18.20;99.90
43151;DHT22;28755;51.478;5.702;2023-08-17T04:33:10;18.20;99.90
43151;DHT22;28755;51.478;5.702;2023-08-17T04:35:36;18.20;99.90
43151;DHT22;28755;51.478;5.702;2023-08-17T04:38:01;18.20;99.90
43151;DHT22;28755;51.478;5.702;2023-08-17T04:40:27;18.10;99.90
43151;DHT22;28755;51.478;5.702;2023-08-17T04:42:53;18.20;99.90
43151;DHT22;28755;51.478;5.702;2023-08-17T04:45:19;18.20;99.90
43151;DHT22;28755;51.478;5.702;2023-08-17T04:47:44;18.10;99.90
43151;DHT22;28755;51.478;5.702;2023-08-17T04:50:10;18.20;99.90
43151;DHT22;28755;51.478;5.702;2023-08-17T04:52:37;18.20;99.90
43151;DHT22;28755;51.478;5.702;2023-08-17T04:55:03;18.20;99.90
43151;DHT22;28755;51.478;5.702;2023-08-17T04:57:29;18.20;99.90
43151;DHT22;28755;51.478;5.702;2023-08-17T04:59:54;18.20;99.90
43151;DHT22;28755;51.478;5.702;2023-08-17T05:02:20;18.20;99.90
43151;DHT22;28755;51.478;5.702;2023-08-17T05:04:46;18.20;99.90
43151;DHT22;28755;51.478;5.702;2023-08-17T05:07:11;18.20;99.90
43151;DHT22;28755;51.478;5.702;2023-08-17T05:09:37;18.10;99.90
43151;DHT22;28755;51.478;5.702;2023-08-17T05:12:03;18.10;99.90
43151;DHT22;28755;51.478;5.702;2023-08-17T05:14:28;18.20;99.90
43151;DHT22;28755;51.478;5.702;2023-08-17T05:16:54;18.20;99.90
43151;DHT22;28755;51.478;5.702;2023-08-17T05:19:19;18.10;99.90
43151;DHT22;28755;51.478;5.702;2023-08-17T05:21:45;18.20;99.90
43151;DHT22;28755;51.478;5.702;2023-08-17T05:24:10;18.10;99.90
43151;DHT22;28755;51.478;5.702;2023-08-17T05:26:36;18.20;99.90
43151;DHT22;28755;51.478;5.702;2023-08-17T05:29:02;18.30;99.90
43151;DHT22;28755;51.478;5.702;2023-08-17T05:31:27;18.30;99.90
43151;DHT22;28755;51.478;5.702;2023-08-17T05:33:53;18.20;99.90
43151;DHT22;28755;51.478;5.702;2023-08-17T05:36:18;18.20;99.90
43151;DHT22;28755;51.478;5.702;2023-08-17T05:38:44;18.30;99.90
43151;DHT22;28755;51.478;5.702;2023-08-17T05:41:09;18.30;99.90
43151;DHT22;28755;51.478;5.702;2023-08-17T05:43:35;18.20;99.90
43151;DHT22;28755;51.478;5.702;2023-08-17T05:46:00;18.30;99.90
43151;DHT22;28755;51.478;5.702;2023-08-17T05:48:26;18.30;99.90
43151;DHT22;28755;51.478;5.702;2023-08-17T05:50:52;18.50;99.90
43151;DHT22;28755;51.478;5.702;2023-08-17T05:53:17;18.40;99.90
43151;DHT22;28755;51.478;5.702;2023-08-17T05:55:43;18.50;99.90
43151;DHT22;28755;51.478;5.702;2023-08-17T05:58:08;18.50;99.90
43151;DHT22;28755;51.478;5.702;2023-08-17T06:00:46;18.50;99.90
43151;DHT22;28755;51.478;5.702;2023-08-17T06:03:11;18.60;99.90
43151;DHT22;28755;51.478;5.702;2023-08-17T06:05:37;18.60;99.90
43151;DHT22;28755;51.478;5.702;2023-08-17T06:08:03;18.60;99.90
43151;DHT22;28755;51.478;5.702;2023-08-17T06:10:29;18.70;99.90
43151;DHT22;28755;51.478;5.702;2023-08-17T06:12:55;18.70;99.90
43151;DHT22;28755;51.478;5.702;2023-08-17T06:15:22;18.80;99.90
43151;DHT22;28755;51.478;5.702;2023-08-17T06:17:48;18.80;99.90
43151;DHT22;28755;51.478;5.702;2023-08-17T06:20:16;18.90;99.90
43151;DHT22;28755;51.478;5.702;2023-08-17T06:22:42;18.80;99.90
43151;DHT22;28755;51.478;5.702;2023-08-17T06:25:08;18.70;99.90
43151;DHT22;28755;51.478;5.702;2023-08-17T06:27:35;18.70;99.90
43151;DHT22;28755;51.478;5.702;2023-08-17T06:30:01;18.80;99.90
43151;DHT22;28755;51.478;5.702;2023-08-17T06:32:28;19.00;99.90
43151;DHT22;28755;51.478;5.702;2023-08-17T06:34:54;19.10;99.90
43151;DHT22;28755;51.478;5.702;2023-08-17T06:37:19;19.30;99.90
43151;DHT22;28755;51.478;5.702;2023-08-17T06:39:45;19.50;99.90
43151;DHT22;28755;51.478;5.702;2023-08-17T06:42:10;19.60;99.90
43151;DHT22;28755;51.478;5.702;2023-08-17T06:44:36;19.60;99.90
43151;DHT22;28755;51.478;5.702;2023-08-17T06:47:01;19.60;99.90
43151;DHT22;28755;51.478;5.702;2023-08-17T06:49:27;19.60;99.90
43151;DHT22;28755;51.478;5.702;2023-08-17T06:51:53;19.70;99.90
43151;DHT22;28755;51.478;5.702;2023-08-17T06:54:18;19.60;99.90
43151;DHT22;28755;51.478;5.702;2023-08-17T06:56:44;19.50;99.90
43151;DHT22;28755;51.478;5.702;2023-08-17T06:59:10;19.60;99.90
43151;DHT22;28755;51.478;5.702;2023-08-17T07:01:35;19.70;99.90
43151;DHT22;28755;51.478;5.702;2023-08-17T07:04:01;19.50;99.90
43151;DHT22;28755;51.478;5.702;2023-08-17T07:06:27;19.40;99.90
43151;DHT22;28755;51.478;5.702;2023-08-17T07:08:54;19.50;99.90
43151;DHT22;28755;51.478;5.702;2023-08-17T07:11:19;19.50;99.90
43151;DHT22;28755;51.478;5.702;2023-08-17T07:13:45;19.60;99.90
43151;DHT22;28755;51.478;5.702;2023-08-17T07:16:11;19.70;99.90
43151;DHT22;28755;51.478;5.702;2023-08-17T07:18:36;19.60;99.90
43151;DHT22;28755;51.478;5.702;2023-08-17T07:21:02;19.50;99.90
43151;DHT22;28755;51.478;5.702;2023-08-17T07:23:27;19.40;99.90
43151;DHT22;28755;51.478;5.702;2023-08-17T07:25:53;19.50;99.90
43151;DHT22;28755;51.478;5.702;2023-08-17T07:28:19;19.40;99.90
43151;DHT22;28755;51.478;5.702;2023-08-17T07:30:44;19.30;99.90
43151;DHT22;28755;51.478;5.702;2023-08-17T07:33:10;19.20;99.90
43151;DHT22;28755;51.478;5.702;2023-08-17T07:35:36;19.20;99.90
43151;DHT22;28755;51.478;5.702;2023-08-17T07:38:01;19.10;99.90
43151;DHT22;28755;51.478;5.702;2023-08-17T07:40:27;19.20;99.90
43151;DHT22;28755;51.478;5.702;2023-08-17T07:42:52;19.20;99.90
43151;DHT22;28755;51.478;5.702;2023-08-17T07:45:18;19.30;99.90
43151;DHT22;28755;51.478;5.702;2023-08-17T07:47:44;19.40;99.90
43151;DHT22;28755;51.478;5.702;2023-08-17T07:50:10;19.30;99.90
43151;DHT22;28755;51.478;5.702;2023-08-17T07:52:35;19.40;99.90
43151;DHT22;28755;51.478;5.702;2023-08-17T07:55:01;19.40;99.90
43151;DHT22;28755;51.478;5.702;2023-08-17T07:57:26;19.40;99.90
43151;DHT22;28755;51.478;5.702;2023-08-17T07:59:52;19.40;99.90
43151;DHT22;28755;51.478;5.702;2023-08-17T08:02:19;19.30;99.90
43151;DHT22;28755;51.478;5.702;2023-08-17T08:04:44;19.30;99.90
43151;DHT22;28755;51.478;5.702;2023-08-17T08:07:10;19.20;99.90
43151;DHT22;28755;51.478;5.702;2023-08-17T08:09:36;19.10;99.90
43151;DHT22;28755;51.478;5.702;2023-08-17T08:12:02;19.10;99.90
43151;DHT22;28755;51.478;5.702;2023-08-17T08:14:28;19.20;99.90
43151;DHT22;28755;51.478;5.702;2023-08-17T08:16:54;19.20;99.90
43151;DHT22;28755;51.478;5.702;2023-08-17T08:19:20;19.20;99.90
43151;DHT22;28755;51.478;5.702;2023-08-17T08:21:45;19.30;99.90
43151;DHT22;28755;51.478;5.702;2023-08-17T08:24:11;19.40;99.90
43151;DHT22;28755;51.478;5.702;2023-08-17T08:26:36;19.30;99.90
43151;DHT22;28755;51.478;5.702;2023-08-17T08:29:02;19.30;99.90
43151;DHT22;28755;51.478;5.702;2023-08-17T08:31:27;19.40;99.90
43151;DHT22;28755;51.478;5.702;2023-08-17T08:33:53;19.40;99.90
43151;DHT22;28755;51.478;5.702;2023-08-17T08:36:19;19.60;99.90
43151;DHT22;28755;51.478;5.702;2023-08-17T08:38:44;19.50;99.90
43151;DHT22;28755;51.478;5.702;2023-08-17T08:41:11;19.40;99.90
43151;DHT22;28755;51.478;5.702;2023-08-17T08:43:38;19.30;99.90
43151;DHT22;28755;51.478;5.702;2023-08-17T08:46:04;19.40;99.90
43151;DHT22;28755;51.478;5.702;2023-08-17T08:48:32;19.50;99.90
43151;DHT22;28755;51.478;5.702;2023-08-17T08:51:00;19.50;99.90
43151;DHT22;28755;51.478;5.702;2023-08-17T08:53:38;19.70;99.90
43151;DHT22;28755;51.478;5.702;2023-08-17T08:56:05;19.90;99.90
43151;DHT22;28755;51.478;5.702;2023-08-17T08:58:33;19.80;99.90
43151;DHT22;28755;51.478;5.702;2023-08-17T09:01:00;19.90;99.90
43151;DHT22;28755;51.478;5.702;2023-08-17T09:03:26;20.00;99.90
43151;DHT22;28755;51.478;5.702;2023-08-17T09:05:52;20.00;99.90
43151;DHT22;28755;51.478;5.702;2023-08-17T09:08:22;20.00;99.90
43151;DHT22;28755;51.478;5.702;2023-08-17T09:10:49;19.90;99.90
43151;DHT22;28755;51.478;5.702;2023-08-17T09:13:15;20.00;99.90
43151;DHT22;28755;51.478;5.702;2023-08-17T09:15:41;20.00;99.90
43151;DHT22;28755;51.478;5.702;2023-08-17T09:18:06;20.10;99.90
43151;DHT22;28755;51.478;5.702;2023-08-17T09:20:46;20.20;99.90
43151;DHT22;28755;51.478;5.702;2023-08-17T09:23:16;20.20;99.90
43151;DHT22;28755;51.478;5.702;2023-08-17T09:25:43;20.30;99.90
43151;DHT22;28755;51.478;5.702;2023-08-17T09:28:13;20.40;99.90
43151;DHT22;28755;51.478;5.702;2023-08-17T09:33:18;20.20;99.90
43151;DHT22;28755;51.478;5.702;2023-08-17T09:35:44;20.00;99.90
43151;DHT22;28755;51.478;5.702;2023-08-17T09:38:09;19.90;99.90
43151;DHT22;28755;51.478;5.702;2023-08-17T09:40:36;19.90;99.90
43151;DHT22;28755;51.478;5.702;2023-08-17T09:43:02;20.00;99.90
43151;DHT22;28755;51.478;5.702;2023-08-17T09:45:28;19.90;99.90
43151;DHT22;28755;51.478;5.702;2023-08-17T09:47:54;19.90;99.90
43151;DHT22;28755;51.478;5.702;2023-08-17T09:50:23;20.00;99.90
43151;DHT22;28755;51.478;5.702;2023-08-17T09:52:53;20.00;99.90
43151;DHT22;28755;51.478;5.702;2023-08-17T09:55:21;20.00;99.90
43151;DHT22;28755;51.478;5.702;2023-08-17T09:57:49;20.00;99.90
43151;DHT22;28755;51.478;5.702;2023-08-17T10:00:14;20.20;99.90
43151;DHT22;28755;51.478;5.702;2023-08-17T10:02:40;20.30;99.90
43151;DHT22;28755;51.478;5.702;2023-08-17T10:05:08;20.30;99.90
43151;DHT22;28755;51.478;5.702;2023-08-17T10:07:36;20.30;99.90
43151;DHT22;28755;51.478;5.702;2023-08-17T10:10:05;20.40;99.90
43151;DHT22;28755;51.478;5.702;2023-08-17T10:12:39;20.40;99.90
43151;DHT22;28755;51.478;5.702;2023-08-17T10:15:11;20.60;99.90
43151;DHT22;28755;51.478;5.702;2023-08-17T10:17:58;20.70;99.90
43151;DHT22;28755;51.478;5.702;2023-08-17T10:20:26;20.80;99.90
43151;DHT22;28755;51.478;5.702;2023-08-17T10:23:14;20.90;99.90
43151;DHT22;28755;51.478;5.702;2023-08-17T10:25:41;21.00;99.90
43151;DHT22;28755;51.478;5.702;2023-08-17T10:28:08;21.30;99.90
43151;DHT22;28755;51.478;5.702;2023-08-17T10:30:35;21.40;99.90
43151;DHT22;28755;51.478;5.702;2023-08-17T10:33:02;21.30;99.90
43151;DHT22;28755;51.478;5.702;2023-08-17T10:35:30;21.10;99.90
43151;DHT22;28755;51.478;5.702;2023-08-17T10:37:56;21.00;99.90
43151;DHT22;28755;51.478;5.702;2023-08-17T10:40:26;21.10;99.90
43151;DHT22;28755;51.478;5.702;2023-08-17T10:42:55;21.60;99.90
43151;DHT22;28755;51.478;5.702;2023-08-17T10:45:32;22.00;99.90
43151;DHT22;28755;51.478;5.702;2023-08-17T10:50:36;22.20;99.90
43151;DHT22;28755;51.478;5.702;2023-08-17T10:53:11;22.20;99.90
43151;DHT22;28755;51.478;5.702;2023-08-17T10:55:44;22.40;99.90
43151;DHT22;28755;51.478;5.702;2023-08-17T10:58:09;22.40;99.90
43151;DHT22;28755;51.478;5.702;2023-08-17T11:00:38;22.50;99.90
43151;DHT22;28755;51.478;5.702;2023-08-17T11:03:04;22.60;99.90
43151;DHT22;28755;51.478;5.702;2023-08-17T11:08:03;22.70;99.90
43151;DHT22;28755;51.478;5.702;2023-08-17T11:10:30;22.60;99.90
43151;DHT22;28755;51.478;5.702;2023-08-17T11:12:56;22.90;99.90
43151;DHT22;28755;51.478;5.702;2023-08-17T11:15:45;23.00;99.90
43151;DHT22;28755;51.478;5.702;2023-08-17T11:18:13;23.10;99.90
43151;DHT22;28755;51.478;5.702;2023-08-17T11:20:41;23.10;99.90
43151;DHT22;28755;51.478;5.702;2023-08-17T11:23:08;23.10;99.90
43151;DHT22;28755;51.478;5.702;2023-08-17T11:25:34;22.90;99.90
43151;DHT22;28755;51.478;5.702;2023-08-17T11:28:01;22.80;99.90
43151;DHT22;28755;51.478;5.702;2023-08-17T11:30:27;22.60;99.90
43151;DHT22;28755;51.478;5.702;2023-08-17T11:32:54;22.10;99.90
43151;DHT22;28755;51.478;5.702;2023-08-17T11:35:20;22.00;99.90
43151;DHT22;28755;51.478;5.702;2023-08-17T11:37:47;22.10;99.90
43151;DHT22;28755;51.478;5.702;2023-08-17T11:40:14;22.20;99.90
43151;DHT22;28755;51.478;5.702;2023-08-17T11:42:41;22.50;99.90
43151;DHT22;28755;51.478;5.702;2023-08-17T11:45:07;22.50;99.90
43151;DHT22;28755;51.478;5.702;2023-08-17T11:47:37;22.60;99.90
43151;DHT22;28755;51.478;5.702;2023-08-17T11:50:03;22.50;99.90
43151;DHT22;28755;51.478;5.702;2023-08-17T11:52:30;22.50;99.90
43151;DHT22;28755;51.478;5.702;2023-08-17T11:54:58;22.30;99.90
43151;DHT22;28755;51.478;5.702;2023-08-17T11:57:24;22.20;99.90
43151;DHT22;28755;51.478;5.702;2023-08-17T11:59:53;22.20;99.90
43151;DHT22;28755;51.478;5.702;2023-08-17T12:02:21;22.00;99.90
43151;DHT22;28755;51.478;5.702;2023-08-17T12:04:48;22.00;99.90
43151;DHT22;28755;51.478;5.702;2023-08-17T12:07:14;22.00;99.90
43151;DHT22;28755;51.478;5.702;2023-08-17T12:09:40;22.00;99.90
43151;DHT22;28755;51.478;5.702;2023-08-17T12:12:06;21.90;99.90
43151;DHT22;28755;51.478;5.702;2023-08-17T12:14:31;21.90;99.90
43151;DHT22;28755;51.478;5.702;2023-08-17T12:16:57;21.80;99.90
43151;DHT22;28755;51.478;5.702;2023-08-17T12:19:25;21.90;99.90
43151;DHT22;28755;51.478;5.702;2023-08-17T12:21:51;22.00;99.90
43151;DHT22;28755;51.478;5.702;2023-08-17T12:24:16;22.00;99.90
43151;DHT22;28755;51.478;5.702;2023-08-17T12:26:45;21.90;99.90
43151;DHT22;28755;51.478;5.702;2023-08-17T12:29:14;21.90;99.90
43151;DHT22;28755;51.478;5.702;2023-08-17T12:31:40;21.90;99.90
43151;DHT22;28755;51.478;5.702;2023-08-17T12:34:06;21.80;99.90
43151;DHT22;28755;51.478;5.702;2023-08-17T12:36:32;21.80;99.90
43151;DHT22;28755;51.478;5.702;2023-08-17T12:38:58;21.90;99.90
43151;DHT22;28755;51.478;5.702;2023-08-17T12:41:23;22.00;99.90
43151;DHT22;28755;51.478;5.702;2023-08-17T12:43:49;22.10;99.90
43151;DHT22;28755;51.478;5.702;2023-08-17T12:46:15;22.10;99.90
43151;DHT22;28755;51.478;5.702;2023-08-17T12:48:40;22.30;99.90
43151;DHT22;28755;51.478;5.702;2023-08-17T12:51:06;22.30;99.90
43151;DHT22;28755;51.478;5.702;2023-08-17T12:53:31;22.50;99.90
43151;DHT22;28755;51.478;5.702;2023-08-17T12:55:57;22.60;99.90
43151;DHT22;28755;51.478;5.702;2023-08-17T12:58:23;22.60;99.90
43151;DHT22;28755;51.478;5.702;2023-08-17T13:00:49;22.60;99.90
43151;DHT22;28755;51.478;5.702;2023-08-17T13:03:17;22.50;99.90
43151;DHT22;28755;51.478;5.702;2023-08-17T13:05:43;22.60;99.90
43151;DHT22;28755;51.478;5.702;2023-08-17T13:08:08;22.50;99.90
43151;DHT22;28755;51.478;5.702;2023-08-17T13:10:34;22.60;99.90
43151;DHT22;28755;51.478;5.702;2023-08-17T13:13:00;22.60;99.90
43151;DHT22;28755;51.478;5.702;2023-08-17T13:15:25;22.60;99.90
43151;DHT22;28755;51.478;5.702;2023-08-17T13:17:51;22.50;99.90
43151;DHT22;28755;51.478;5.702;2023-08-17T13:20:17;22.60;99.90
43151;DHT22;28755;51.478;5.702;2023-08-17T13:22:42;22.50;99.90
43151;DHT22;28755;51.478;5.702;2023-08-17T13:25:08;22.30;99.90
43151;DHT22;28755;51.478;5.702;2023-08-17T13:27:33;22.10;99.90
43151;DHT22;28755;51.478;5.702;2023-08-17T13:29:59;22.00;99.90
43151;DHT22;28755;51.478;5.702;2023-08-17T13:32:27;21.90;99.90
43151;DHT22;28755;51.478;5.702;2023-08-17T13:34:53;22.00;99.90
43151;DHT22;28755;51.478;5.702;2023-08-17T13:37:19;22.00;99.90
43151;DHT22;28755;51.478;5.702;2023-08-17T13:39:45;22.20;99.90
43151;DHT22;28755;51.478;5.702;2023-08-17T13:42:11;22.20;99.90
43151;DHT22;28755;51.478;5.702;2023-08-17T13:44:37;22.20;99.90
43151;DHT22;28755;51.478;5.702;2023-08-17T13:47:03;22.10;99.90
43151;DHT22;28755;51.478;5.702;2023-08-17T13:49:29;22.00;99.90
43151;DHT22;28755;51.478;5.702;2023-08-17T13:51:54;22.00;99.90
43151;DHT22;28755;51.478;5.702;2023-08-17T13:54:24;22.00;99.90
43151;DHT22;28755;51.478;5.702;2023-08-17T13:56:50;22.10;99.90
43151;DHT22;28755;51.478;5.702;2023-08-17T13:59:16;22.10;99.90
43151;DHT22;28755;51.478;5.702;2023-08-17T14:01:42;22.00;99.90
43151;DHT22;28755;51.478;5.702;2023-08-17T14:04:07;21.90;99.90
43151;DHT22;28755;51.478;5.702;2023-08-17T14:06:40;21.80;99.90
43151;DHT22;28755;51.478;5.702;2023-08-17T14:09:06;22.00;99.90
43151;DHT22;28755;51.478;5.702;2023-08-17T14:11:32;22.10;99.90
43151;DHT22;28755;51.478;5.702;2023-08-17T14:13:57;21.80;99.90
43151;DHT22;28755;51.478;5.702;2023-08-17T14:16:23;21.70;99.90
43151;DHT22;28755;51.478;5.702;2023-08-17T14:18:48;21.80;99.90
43151;DHT22;28755;51.478;5.702;2023-08-17T14:21:14;21.60;99.90
43151;DHT22;28755;51.478;5.702;2023-08-17T14:23:40;21.80;99.90
43151;DHT22;28755;51.478;5.702;2023-08-17T14:26:06;21.70;99.90
43151;DHT22;28755;51.478;5.702;2023-08-17T14:28:31;21.60;99.90
43151;DHT22;28755;51.478;5.702;2023-08-17T14:30:57;21.60;99.90
43151;DHT22;28755;51.478;5.702;2023-08-17T14:33:23;21.60;99.90
43151;DHT22;28755;51.478;5.702;2023-08-17T14:35:48;21.50;99.90
43151;DHT22;28755;51.478;5.702;2023-08-17T14:38:14;21.60;99.90
43151;DHT22;28755;51.478;5.702;2023-08-17T14:40:47;21.60;99.90
43151;DHT22;28755;51.478;5.702;2023-08-17T14:43:14;21.70;99.90
43151;DHT22;28755;51.478;5.702;2023-08-17T14:45:43;21.70;99.90
43151;DHT22;28755;51.478;5.702;2023-08-17T14:48:09;21.70;99.90
43151;DHT22;28755;51.478;5.702;2023-08-17T14:50:36;21.70;99.90
43151;DHT22;28755;51.478;5.702;2023-08-17T14:53:03;21.80;99.90
43151;DHT22;28755;51.478;5.702;2023-08-17T14:55:30;21.70;99.90
43151;DHT22;28755;51.478;5.702;2023-08-17T14:57:56;21.60;99.90
43151;DHT22;28755;51.478;5.702;2023-08-17T15:00:23;21.50;99.90
43151;DHT22;28755;51.478;5.702;2023-08-17T15:02:49;21.60;99.90
43151;DHT22;28755;51.478;5.702;2023-08-17T15:05:15;21.60;99.90
43151;DHT22;28755;51.478;5.702;2023-08-17T15:07:40;21.50;99.90
43151;DHT22;28755;51.478;5.702;2023-08-17T15:10:06;21.50;99.90
43151;DHT22;28755;51.478;5.702;2023-08-17T15:12:32;21.50;99.90
43151;DHT22;28755;51.478;5.702;2023-08-17T15:14:57;21.50;99.90
43151;DHT22;28755;51.478;5.702;2023-08-17T15:17:23;21.50;99.90
43151;DHT22;28755;51.478;5.702;2023-08-17T15:19:48;21.60;99.90
43151;DHT22;28755;51.478;5.702;2023-08-17T15:22:14;21.60;99.90
43151;DHT22;28755;51.478;5.702;2023-08-17T15:24:40;21.60;99.90
43151;DHT22;28755;51.478;5.702;2023-08-17T15:27:05;21.50;99.90
43151;DHT22;28755;51.478;5.702;2023-08-17T15:29:31;21.50;99.90
43151;DHT22;28755;51.478;5.702;2023-08-17T15:31:56;21.60;99.90
43151;DHT22;28755;51.478;5.702;2023-08-17T15:34:22;21.60;99.90